Pike, Minnesota
Current Conditions -  °F | °C
As of 3:21 AM on Thursday 23 Oct 2014 (Local Time) from KELO Reporting Station
Overcast Overcast  
Wind Chill: 50°   Ceiling: 2500
Heat Index: 50°   Visibility: 10mi
Dew Point: 36°   Wind: 6mph
Humidity: 58%   Direction: 190°S
Pressure: 29.96"   Gusts: NA
Location:  47.691°N, 92.2161°W
Report Text: KELO 230821Z AUTO 19005KT 10SM OVC025 10/02 A2996 RMK AO2
Loading
Personal Weather Stations






























Interactive Weather Map
Tropical Storm Tracking
New forecast layout! Learn more

10-Day Weather Forecast

Advertisements
Track Severe Weather on mobile